createdAt,value
2022-11-13T00:01:21.036Z,102392.75
2022-11-13T00:04:06.250Z,102384.63
2022-11-13T00:06:56.145Z,102379.81
2022-11-13T00:09:44.555Z,102386.31
2022-11-13T00:12:29.965Z,102384.81
2022-11-13T00:15:15.588Z,102383.75
2022-11-13T00:18:02.732Z,102377.75
2022-11-13T00:20:47.927Z,102374.97
2022-11-13T00:23:34.878Z,102366.13
2022-11-13T00:26:22.721Z,102381.28
2022-11-13T00:29:09.204Z,102375.16
2022-11-13T00:31:54.693Z,102364.78
2022-11-13T00:34:48.278Z,102356.09
2022-11-13T00:37:34.299Z,102357.56
2022-11-13T00:40:19.785Z,102358.13
2022-11-13T00:43:05.144Z,102353.94
2022-11-13T00:45:50.908Z,102356.91
2022-11-13T00:48:36.407Z,102363.06
2022-11-13T00:51:21.940Z,102363.09
2022-11-13T00:54:07.303Z,102359.59
2022-11-13T00:56:52.582Z,102358.78
2022-11-13T00:59:37.993Z,102348.25
2022-11-13T01:02:23.709Z,102352.19
2022-11-13T01:05:09.226Z,102348.53
2022-11-13T01:07:54.841Z,102348.53
2022-11-13T01:10:44.837Z,102344.88
2022-11-13T01:13:32.019Z,102350.41
2022-11-13T01:16:20.181Z,102338.88
2022-11-13T01:19:05.744Z,102340.97
2022-11-13T01:21:51.168Z,102350.84
2022-11-13T01:24:36.427Z,102348.72
2022-11-13T01:27:22.010Z,102352.59
2022-11-13T01:30:07.735Z,102353.00
2022-11-13T01:32:52.957Z,102352.41
2022-11-13T01:35:38.220Z,102346.38
2022-11-13T01:38:23.393Z,102344.38
2022-11-13T01:41:30.809Z,102357.53
2022-11-13T01:44:18.158Z,102347.13
2022-11-13T01:47:04.496Z,102352.97
2022-11-13T01:49:53.345Z,102337.72
2022-11-13T01:52:41.040Z,102337.31
2022-11-13T01:55:26.916Z,102345.91
2022-11-13T01:58:13.220Z,102346.31
2022-11-13T02:00:58.661Z,102336.91
2022-11-13T02:03:44.136Z,102345.41
2022-11-13T02:06:36.624Z,102338.56
2022-11-13T02:09:26.856Z,102342.94
2022-11-13T02:12:15.145Z,102342.69
2022-11-13T02:15:02.660Z,102342.19
2022-11-13T02:18:06.893Z,102337.81
2022-11-13T02:20:58.332Z,102333.94
2022-11-13T02:23:58.397Z,102345.09
2022-11-13T02:26:44.864Z,102330.84
2022-11-13T02:29:30.264Z,102338.81
2022-11-13T02:32:15.368Z,102340.94
2022-11-13T02:35:00.790Z,102350.69
2022-11-13T02:37:46.283Z,102342.94
2022-11-13T02:40:33.893Z,102343.56
2022-11-13T02:43:19.122Z,102341.50
2022-11-13T02:46:04.388Z,102342.50
2022-11-13T02:48:49.645Z,102348.56
2022-11-13T02:51:34.955Z,102349.47
2022-11-13T02:54:20.500Z,102347.84
2022-11-13T02:57:05.881Z,102348.69
2022-11-13T02:59:51.679Z,102345.66
2022-11-13T03:02:37.090Z,102352.28
2022-11-13T03:05:23.096Z,102351.13
2022-11-13T03:08:08.154Z,102357.34
2022-11-13T03:10:54.820Z,102356.97
2022-11-13T03:13:41.297Z,102356.75
2022-11-13T03:16:27.010Z,102363.97
2022-11-13T03:19:12.214Z,102362.13
2022-11-13T03:21:57.535Z,102359.28
2022-11-13T03:24:42.696Z,102349.69
2022-11-13T03:27:27.952Z,102355.97
2022-11-13T03:30:13.491Z,102356.81
2022-11-13T03:32:58.628Z,102359.16
2022-11-13T03:35:46.874Z,102371.88
2022-11-13T03:38:32.930Z,102355.56
2022-11-13T03:41:18.295Z,102355.88
2022-11-13T03:44:03.677Z,102355.66
2022-11-13T03:46:48.844Z,102353.19
2022-11-13T03:49:34.367Z,102357.00
2022-11-13T03:52:19.774Z,102346.69
2022-11-13T03:55:05.429Z,102342.41
2022-11-13T03:57:50.748Z,102351.72
2022-11-13T04:00:37.055Z,102354.66
2022-11-13T04:03:23.209Z,102350.59
2022-11-13T04:06:09.649Z,102357.34
2022-11-13T04:08:55.004Z,102354.34
2022-11-13T04:11:40.275Z,102349.72
2022-11-13T04:14:25.630Z,102345.78
2022-11-13T04:17:11.101Z,102344.03
2022-11-13T04:19:56.509Z,102346.91
2022-11-13T04:22:41.707Z,102345.69
2022-11-13T04:25:27.655Z,102343.44
2022-11-13T04:28:13.372Z,102356.25
2022-11-13T04:30:59.051Z,102355.13
2022-11-13T04:33:44.617Z,102362.75
2022-11-13T04:36:29.985Z,102354.69
2022-11-13T04:39:15.343Z,102360.69
2022-11-13T04:42:18.908Z,102358.66
2022-11-13T04:45:04.904Z,102350.88
2022-11-13T04:47:51.688Z,102356.78
2022-11-13T04:50:36.981Z,102358.50
2022-11-13T04:53:22.395Z,102356.47
2022-11-13T04:56:07.767Z,102362.59
2022-11-13T04:58:53.019Z,102356.78
2022-11-13T05:01:38.680Z,102366.44
2022-11-13T05:04:24.121Z,102356.69
2022-11-13T05:07:09.592Z,102358.56
2022-11-13T05:09:54.976Z,102356.63
2022-11-13T05:12:39.997Z,102354.44
2022-11-13T05:15:25.689Z,102360.25
2022-11-13T05:18:11.224Z,102360.31
2022-11-13T05:20:56.581Z,102360.97
2022-11-13T05:23:41.849Z,102366.31
2022-11-13T05:26:27.184Z,102365.84
2022-11-13T05:29:12.372Z,102360.31
2022-11-13T05:31:57.504Z,102357.75
2022-11-13T05:34:42.897Z,102367.28
2022-11-13T05:37:29.764Z,102359.28
2022-11-13T05:40:15.602Z,102353.63
2022-11-13T05:43:01.309Z,102368.41
2022-11-13T05:45:46.569Z,102369.13
2022-11-13T05:48:33.062Z,102367.38
2022-11-13T05:51:20.843Z,102376.00
2022-11-13T05:54:06.464Z,102382.31
2022-11-13T05:56:51.833Z,102382.84
2022-11-13T05:59:36.857Z,102387.25
2022-11-13T06:02:22.413Z,102395.22
2022-11-13T06:05:07.977Z,102397.09
2022-11-13T06:07:53.591Z,102399.91
2022-11-13T06:10:39.018Z,102404.59
2022-11-13T06:13:24.354Z,102395.03
2022-11-13T06:16:11.707Z,102395.41
2022-11-13T06:18:59.730Z,102385.63
2022-11-13T06:21:45.047Z,102392.28
2022-11-13T06:24:30.553Z,102397.75
2022-11-13T06:27:15.825Z,102380.03
2022-11-13T06:30:01.221Z,102386.38
2022-11-13T06:32:52.923Z,102397.75
2022-11-13T06:35:38.345Z,102392.56
2022-11-13T06:38:23.871Z,102385.09
2022-11-13T06:41:14.354Z,102387.59
2022-11-13T06:44:02.950Z,102388.66
2022-11-13T06:46:49.283Z,102380.31
2022-11-13T06:49:34.606Z,102385.00
2022-11-13T06:52:19.936Z,102377.97
2022-11-13T06:55:05.556Z,102373.47
2022-11-13T06:57:50.935Z,102374.75
2022-11-13T07:00:38.237Z,102377.44
2022-11-13T07:03:27.323Z,102365.19
2022-11-13T07:06:18.807Z,102366.03
2022-11-13T07:09:04.166Z,102361.84
2022-11-13T07:11:49.320Z,102362.66
2022-11-13T07:14:34.492Z,102357.47
2022-11-13T07:17:19.854Z,102354.41
2022-11-13T07:20:05.129Z,102356.47
2022-11-13T07:22:50.700Z,102354.72
2022-11-13T07:25:36.169Z,102349.66
2022-11-13T07:28:21.586Z,102347.25
2022-11-13T07:31:08.021Z,102352.47
2022-11-13T07:33:53.335Z,102345.28
2022-11-13T07:36:38.682Z,102346.84
2022-11-13T07:39:24.044Z,102347.09
2022-11-13T07:42:09.406Z,102346.00
2022-11-13T07:44:55.647Z,102344.72
2022-11-13T07:47:41.602Z,102342.03
2022-11-13T07:50:37.660Z,102343.13
2022-11-13T07:53:23.260Z,102347.25
2022-11-13T07:56:09.103Z,102346.00
2022-11-13T07:58:54.308Z,102342.41
2022-11-13T08:01:39.759Z,102345.19
2022-11-13T08:04:25.075Z,102338.22
2022-11-13T08:07:12.724Z,102333.84
2022-11-13T08:09:58.261Z,102335.78
2022-11-13T08:12:44.908Z,102327.59
2022-11-13T08:15:31.604Z,102338.06
2022-11-13T08:18:17.147Z,102325.59
2022-11-13T08:21:04.417Z,102336.78
2022-11-13T08:23:50.467Z,102329.19
2022-11-13T08:26:38.341Z,102327.31
2022-11-13T08:29:23.720Z,102337.25
2022-11-13T08:32:09.000Z,102336.81
2022-11-13T08:34:54.398Z,102335.28
2022-11-13T08:37:39.845Z,102323.66
2022-11-13T08:40:25.360Z,102313.94
2022-11-13T08:43:10.705Z,102320.50
2022-11-13T08:45:56.307Z,102314.47
2022-11-13T08:48:42.197Z,102316.94
2022-11-13T08:51:27.488Z,102310.72
2022-11-13T08:54:13.100Z,102311.47
2022-11-13T08:57:03.331Z,102308.28
2022-11-13T08:59:51.239Z,102306.03
2022-11-13T09:02:36.755Z,102301.16
2022-11-13T09:05:23.037Z,102297.03
2022-11-13T09:08:08.408Z,102300.38
2022-11-13T09:10:53.513Z,102298.97
2022-11-13T09:13:43.992Z,102296.97
2022-11-13T09:16:31.384Z,102283.53
2022-11-13T09:19:16.658Z,102285.44
2022-11-13T09:22:02.039Z,102273.13
2022-11-13T09:24:47.594Z,102273.03
2022-11-13T09:27:32.823Z,102270.34
2022-11-13T09:30:18.273Z,102264.59
2022-11-13T09:33:04.120Z,102264.75
2022-11-13T09:35:49.311Z,102265.44
2022-11-13T09:38:34.521Z,102264.75
2022-11-13T09:41:25.516Z,102247.44
2022-11-13T09:44:26.172Z,102236.25
2022-11-13T09:47:25.212Z,102238.19
2022-11-13T09:50:13.399Z,102230.50
2022-11-13T09:52:58.886Z,102236.38
2022-11-13T09:55:56.872Z,102224.03
2022-11-13T09:59:06.484Z,102229.41
2022-11-13T10:02:22.332Z,102213.22
2022-11-13T10:05:13.581Z,102219.19
2022-11-13T10:08:04.627Z,102224.06
2022-11-13T10:10:57.924Z,102208.84
2022-11-13T10:13:58.269Z,102213.19
2022-11-13T10:16:56.337Z,102206.44
2022-11-13T10:19:58.799Z,102200.88
2022-11-13T10:23:13.080Z,102196.56
2022-11-13T10:26:13.162Z,102201.69
2022-11-13T10:29:09.579Z,102199.19
2022-11-13T10:31:55.157Z,102196.69
2022-11-13T10:34:43.386Z,102190.44
2022-11-13T10:37:43.215Z,102189.16
2022-11-13T10:40:32.079Z,102181.13
2022-11-13T10:43:23.481Z,102178.78
2022-11-13T10:46:19.487Z,102185.28
2022-11-13T10:49:31.550Z,102177.72
2022-11-13T10:52:28.260Z,102194.22
2022-11-13T10:55:40.292Z,102184.00
2022-11-13T10:58:26.020Z,102180.84
2022-11-13T11:01:24.096Z,102176.28
2022-11-13T11:04:30.244Z,102172.31
2022-11-13T11:07:21.334Z,102180.22
2022-11-13T11:10:29.816Z,102173.13
2022-11-13T11:13:22.973Z,102168.72
2022-11-13T11:16:11.656Z,102168.22
2022-11-13T11:19:04.408Z,102162.59
2022-11-13T11:21:54.397Z,102159.97
2022-11-13T11:24:56.325Z,102159.16
2022-11-13T11:27:49.945Z,102158.69
2022-11-13T11:30:44.312Z,102160.78
2022-11-13T11:33:35.874Z,102147.81
2022-11-13T11:36:35.360Z,102163.25
2022-11-13T11:39:35.741Z,102152.59
2022-11-13T11:42:47.447Z,102158.00
2022-11-13T11:45:37.643Z,102157.69
2022-11-13T11:48:31.971Z,102155.97
2022-11-13T11:51:32.014Z,102156.44
2022-11-13T11:54:43.824Z,102153.69
2022-11-13T11:57:39.688Z,102151.53
2022-11-13T12:00:25.795Z,102151.53
2022-11-13T12:03:16.997Z,102152.81
2022-11-13T12:06:15.062Z,102145.81
2022-11-13T12:09:31.160Z,102143.16
2022-11-13T12:12:44.564Z,102139.88
2022-11-13T12:15:59.757Z,102139.94
2022-11-13T12:18:49.568Z,102145.28
2022-11-13T12:22:00.266Z,102150.56
2022-11-13T12:24:45.963Z,102139.97
2022-11-13T12:27:35.873Z,102150.59
2022-11-13T12:30:25.000Z,102139.16
2022-11-13T12:33:13.258Z,102133.81
2022-11-13T12:35:59.225Z,102141.72
2022-11-13T12:38:52.612Z,102136.47
2022-11-13T12:41:51.628Z,102132.88
2022-11-13T12:44:53.631Z,102137.31
2022-11-13T12:47:38.976Z,102138.19
2022-11-13T12:50:32.746Z,102138.22
2022-11-13T12:53:27.521Z,102137.31
2022-11-13T12:56:18.048Z,102137.31
2022-11-13T12:59:29.956Z,102140.78
2022-11-13T13:02:50.507Z,102145.22
2022-11-13T13:06:12.860Z,102143.44
2022-11-13T13:09:35.602Z,102135.47
2022-11-13T13:12:30.030Z,102132.44
2022-11-13T13:15:36.785Z,102128.97
2022-11-13T13:18:21.791Z,102133.41
2022-11-13T13:21:10.329Z,102134.50
2022-11-13T13:24:08.312Z,102130.06
2022-11-13T13:26:54.297Z,102119.34
2022-11-13T13:29:41.065Z,102123.78
2022-11-13T13:32:36.297Z,102121.00
2022-11-13T13:35:43.098Z,102122.06
2022-11-13T13:38:54.562Z,102125.66
2022-11-13T13:41:57.515Z,102123.13
2022-11-13T13:45:25.002Z,102122.25
2022-11-13T13:48:13.800Z,102120.50
2022-11-13T13:51:01.167Z,102122.25
2022-11-13T13:53:47.833Z,102115.22
2022-11-13T13:56:39.721Z,102116.09
2022-11-13T13:59:34.164Z,102111.69
2022-11-13T14:02:24.509Z,102111.75
2022-11-13T14:05:26.127Z,102108.22
2022-11-13T14:08:26.081Z,102110.81
2022-11-13T14:11:29.938Z,102098.44
2022-11-13T14:14:19.033Z,102102.91
2022-11-13T14:17:05.574Z,102102.91
2022-11-13T14:19:55.037Z,102108.19
2022-11-13T14:22:42.375Z,102101.94
2022-11-13T14:25:29.331Z,102109.00
2022-11-13T14:28:17.527Z,102107.28
2022-11-13T14:31:08.655Z,102104.63
2022-11-13T14:33:54.338Z,102101.06
2022-11-13T14:36:40.948Z,102103.75
2022-11-13T14:39:30.172Z,102099.34
2022-11-13T14:42:22.801Z,102106.41
2022-11-13T14:45:23.588Z,102105.56
2022-11-13T14:48:18.685Z,102109.03
2022-11-13T14:51:06.221Z,102099.28
2022-11-13T14:54:07.614Z,102090.41
2022-11-13T14:56:54.158Z,102087.81
2022-11-13T14:59:42.445Z,102085.22
2022-11-13T15:02:27.537Z,102083.44
2022-11-13T15:05:13.150Z,102079.03
2022-11-13T15:07:58.343Z,102086.06
2022-11-13T15:10:43.727Z,102088.59
2022-11-13T15:13:29.429Z,102083.19
2022-11-13T15:16:27.599Z,102085.78
2022-11-13T15:19:19.881Z,102085.84
2022-11-13T15:25:17.131Z,102087.47
2022-11-13T15:28:02.621Z,102086.63
2022-11-13T15:30:48.040Z,102088.53
2022-11-13T15:33:33.392Z,102095.66
2022-11-13T15:36:18.598Z,102084.28
2022-11-13T15:39:06.665Z,102081.59
2022-11-13T15:41:53.000Z,102090.47
2022-11-13T15:44:38.097Z,102079.00
2022-11-13T15:47:34.953Z,102093.09
2022-11-13T15:50:20.697Z,102086.03
2022-11-13T15:53:09.181Z,102081.59
2022-11-13T15:55:54.696Z,102088.63
2022-11-13T15:58:40.003Z,102085.03
2022-11-13T16:01:26.075Z,102077.81
2022-11-13T16:04:13.255Z,102081.34
2022-11-13T16:06:58.671Z,102083.13
2022-11-13T16:09:44.566Z,102080.41
2022-11-13T16:12:29.878Z,102089.94
2022-11-13T16:15:16.879Z,102086.38
2022-11-13T16:18:02.611Z,102092.53
2022-11-13T16:20:48.041Z,102093.41
2022-11-13T16:23:33.387Z,102088.78
2022-11-13T16:26:21.705Z,102091.38
2022-11-13T16:29:19.497Z,102091.25
2022-11-13T16:32:04.781Z,102090.25
2022-11-13T16:34:50.554Z,102091.13
2022-11-13T16:37:35.634Z,102094.72
2022-11-13T16:40:24.801Z,102098.44
2022-11-13T16:43:11.530Z,102093.06
2022-11-13T16:46:00.490Z,102092.94
2022-11-13T16:48:45.908Z,102090.38
2022-11-13T16:51:31.701Z,102090.56
2022-11-13T16:54:17.097Z,102083.34
2022-11-13T16:57:02.307Z,102082.34
2022-11-13T16:59:47.590Z,102081.38
2022-11-13T17:02:33.144Z,102082.09
2022-11-13T17:05:19.785Z,102083.81
2022-11-13T17:08:06.145Z,102080.28
2022-11-13T17:10:58.422Z,102079.94
2022-11-13T17:13:44.162Z,102085.13
2022-11-13T17:16:31.406Z,102079.09
2022-11-13T17:19:16.719Z,102081.94
2022-11-13T17:22:02.367Z,102069.81
2022-11-13T17:24:47.901Z,102075.06
2022-11-13T17:27:33.390Z,102074.94
2022-11-13T17:30:18.995Z,102080.19
2022-11-13T17:33:04.014Z,102074.91
2022-11-13T17:35:57.046Z,102074.91
2022-11-13T17:38:42.965Z,102067.81
2022-11-13T17:41:28.444Z,102075.50
2022-11-13T17:44:13.931Z,102072.28
2022-11-13T17:46:59.242Z,102069.88
2022-11-13T17:49:44.284Z,102071.63
2022-11-13T17:52:29.742Z,102069.63
2022-11-13T17:55:15.611Z,102065.97
2022-11-13T17:58:01.988Z,102071.03
2022-11-13T18:00:47.639Z,102069.19
2022-11-13T18:03:32.816Z,102065.56
2022-11-13T18:06:20.047Z,102066.38
2022-11-13T18:09:06.533Z,102066.38
2022-11-13T18:11:51.576Z,102060.03
2022-11-13T18:14:37.075Z,102062.09
2022-11-13T18:17:23.426Z,102053.31
2022-11-13T18:20:09.929Z,102056.94
2022-11-13T18:22:56.484Z,102055.19
2022-11-13T18:25:41.845Z,102060.44
2022-11-13T18:28:27.462Z,102051.47
2022-11-13T18:31:15.984Z,102047.91
2022-11-13T18:34:02.819Z,102052.13
2022-11-13T18:36:48.417Z,102051.91
2022-11-13T18:39:34.136Z,102052.13
2022-11-13T18:42:19.666Z,102055.25
2022-11-13T18:45:06.281Z,102043.94
2022-11-13T18:47:52.044Z,102051.06
2022-11-13T18:50:37.260Z,102041.28
2022-11-13T18:53:23.344Z,102040.34
2022-11-13T18:56:13.062Z,102041.38
2022-11-13T18:58:59.673Z,102047.84
2022-11-13T19:01:45.438Z,102046.00
2022-11-13T19:04:30.829Z,102047.22
2022-11-13T19:07:16.751Z,102046.06
2022-11-13T19:10:02.478Z,102049.75
2022-11-13T19:12:48.681Z,102047.91
2022-11-13T19:15:39.007Z,102048.88
2022-11-13T19:18:24.341Z,102049.56
2022-11-13T19:21:15.168Z,102049.50
2022-11-13T19:24:01.459Z,102045.16
2022-11-13T19:26:46.914Z,102046.88
2022-11-13T19:29:32.403Z,102043.16
2022-11-13T19:32:17.678Z,102049.56
2022-11-13T19:35:03.515Z,102054.75
2022-11-13T19:37:48.833Z,102045.88
2022-11-13T19:40:34.096Z,102045.47
2022-11-13T19:43:19.709Z,102047.91
2022-11-13T19:46:07.522Z,102044.97
2022-11-13T19:48:53.268Z,102046.81
2022-11-13T19:51:39.198Z,102038.34
2022-11-13T19:54:24.410Z,102045.19
2022-11-13T19:57:09.885Z,102041.19
2022-11-13T19:59:55.383Z,102037.91
2022-11-13T20:02:40.965Z,102036.84
2022-11-13T20:05:26.565Z,102033.97
2022-11-13T20:08:14.016Z,102038.69
2022-11-13T20:11:07.285Z,102034.25
2022-11-13T20:13:52.739Z,102029.56
2022-11-13T20:16:38.409Z,102023.44
2022-11-13T20:19:23.867Z,102032.84
2022-11-13T20:22:09.236Z,102032.56
2022-11-13T20:24:54.523Z,102020.16
2022-11-13T20:27:44.488Z,102033.63
2022-11-13T20:30:32.910Z,102021.88
2022-11-13T20:33:22.450Z,102013.25
2022-11-13T20:36:08.602Z,102020.69
2022-11-13T20:38:55.045Z,102011.75
2022-11-13T20:41:40.338Z,102012.56
2022-11-13T20:44:25.626Z,102016.28
2022-11-13T20:47:11.492Z,102010.81
2022-11-13T20:49:56.826Z,102010.72
2022-11-13T20:52:42.102Z,102016.94
2022-11-13T20:55:27.679Z,102016.84
2022-11-13T20:58:12.820Z,102008.81
2022-11-13T21:01:06.075Z,102002.84
2022-11-13T21:03:52.529Z,102012.50
2022-11-13T21:06:38.194Z,102004.56
2022-11-13T21:09:23.426Z,102010.34
2022-11-13T21:12:09.017Z,102016.16
2022-11-13T21:14:54.291Z,102013.97
2022-11-13T21:17:39.987Z,102008.00
2022-11-13T21:20:25.317Z,102004.63
2022-11-13T21:23:10.700Z,101998.41
2022-11-13T21:26:03.002Z,102001.69
2022-11-13T21:28:48.312Z,102001.56
2022-11-13T21:31:33.738Z,101996.56
2022-11-13T21:34:18.987Z,101995.44
2022-11-13T21:37:04.055Z,101991.66
2022-11-13T21:39:49.345Z,101992.91
2022-11-13T21:42:34.763Z,101998.06
2022-11-13T21:45:20.166Z,101988.88
2022-11-13T21:48:06.020Z,101997.00
2022-11-13T21:50:51.273Z,101994.84
2022-11-13T21:53:37.366Z,101992.41
2022-11-13T21:56:24.303Z,101988.06
2022-11-13T21:59:10.012Z,101990.84
2022-11-13T22:01:55.350Z,101993.53
2022-11-13T22:04:40.594Z,101982.03
2022-11-13T22:07:25.833Z,101982.00
2022-11-13T22:10:11.313Z,101981.59
2022-11-13T22:12:56.667Z,101973.09
2022-11-13T22:15:42.722Z,101985.84
2022-11-13T22:18:28.040Z,101975.63
2022-11-13T22:21:15.037Z,101975.75
2022-11-13T22:24:00.833Z,101976.63
2022-11-13T22:26:47.968Z,101978.34
2022-11-13T22:29:33.253Z,101965.09
2022-11-13T22:32:18.773Z,101970.22
2022-11-13T22:35:04.490Z,101974.72
2022-11-13T22:37:50.056Z,101970.72
2022-11-13T22:40:35.466Z,101968.22
2022-11-13T22:43:20.586Z,101968.00
2022-11-13T22:46:09.128Z,101961.22
2022-11-13T22:48:55.879Z,101957.28
2022-11-13T22:51:41.785Z,101960.66
2022-11-13T22:54:27.493Z,101957.97
2022-11-13T22:57:13.027Z,101964.72
2022-11-13T22:59:58.387Z,101963.53
2022-11-13T23:02:47.275Z,101960.75
2022-11-13T23:05:36.099Z,101960.06
2022-11-13T23:08:21.565Z,101964.63
2022-11-13T23:11:40.405Z,101961.97
2022-11-13T23:14:25.974Z,101958.78
2022-11-13T23:17:11.745Z,101957.16
2022-11-13T23:19:57.410Z,101955.34
2022-11-13T23:22:42.997Z,101952.50
2022-11-13T23:25:28.525Z,101961.41
2022-11-13T23:28:13.917Z,101965.44
2022-11-13T23:30:59.568Z,101971.41
2022-11-13T23:33:44.991Z,101962.16
2022-11-13T23:36:31.017Z,101959.94
2022-11-13T23:39:16.855Z,101952.22
2022-11-13T23:42:02.429Z,101948.81
2022-11-13T23:44:47.856Z,101958.41
2022-11-13T23:47:33.118Z,101952.34
2022-11-13T23:50:18.643Z,101959.06
2022-11-13T23:53:04.291Z,101953.31
2022-11-13T23:55:49.819Z,101953.56
2022-11-13T23:58:35.900Z,101956.97
